Svyataya Anna — UUCV — position and weather

sailwx.info

Track history (hours):
 
Tides and Currents Weather Stations Pressure Air Temp Water Temp Dewpoint Dewpoint Depression Visibility Wind Speed Wind Dir Waves Ship Positions

Svyataya Anna

Last reported at 2016-Dec-07 19:25 UTC. Time now 2016-Dec-10 18:34 UTC.
Position N 46°34' E 031°55'.

Length 93 m; draft 1.9 m.

Type: Cargo ship. MMSI: 272068800.

Date/timePositionNaut miles runAvg speedWind from/ knotsBaromVisibWave heightAir tempDewpointWater temp
2016-Dec-07 19:25N 46°34' E 031°55'5 5.5
2016-Dec-07 18:25N 46°36' E 031°48'  
2016-Nov-29 09:33N 45°11' E 036°28'6 6.3
2016-Nov-29 08:33N 45°17' E 036°29'6 6.0
2016-Nov-29 07:33N 45°20' E 036°36'4 4.5
2016-Nov-29 06:34N 45°23' E 036°40'4 4.2
2016-Nov-29 05:33N 45°27' E 036°42'4 3.5
2016-Nov-29 04:33N 45°31' E 036°40'3 3.4
2016-Nov-29 03:33N 45°34' E 036°41'  
Track history (hours):
 
Tides and Currents Weather Stations Pressure Air Temp Water Temp Dewpoint Dewpoint Depression Visibility Wind Speed Wind Dir Waves Ship Positions

Svyataya Anna

Last reported at 2016-Dec-07 19:25 UTC. Time now 2016-Dec-10 18:34 UTC.
Position N 46°34' E 031°55'.

Length 93 m; draft 1.9 m.

Type: Cargo ship. MMSI: 272068800.

Date/timePositionNaut miles runAvg speedWind from/ knotsBaromVisibWave heightAir tempDewpointWater temp
2016-Dec-07 19:25N 46°34' E 031°55'5 5.5
2016-Dec-07 18:25N 46°36' E 031°48'  
2016-Nov-29 09:33N 45°11' E 036°28'6 6.3
2016-Nov-29 08:33N 45°17' E 036°29'6 6.0
2016-Nov-29 07:33N 45°20' E 036°36'4 4.5
2016-Nov-29 06:34N 45°23' E 036°40'4 4.2
2016-Nov-29 05:33N 45°27' E 036°42'4 3.5
2016-Nov-29 04:33N 45°31' E 036°40'3 3.4
2016-Nov-29 03:33N 45°34' E 036°41'  

Dump ship's entire track history